Time;durP1;ratioP1;P1;durP2;ratioP2;P2;SDS_P1;SDS_P2;PMS_P1;PMS_P2;Temp;Humidity;BMP_temperature;BMP_pressure;BME280_temperature;BME280_humidity;BME280_pressure;Samples;Min_cycle;Max_cycle;Signal;HPM_P1;HPM_P2
2024/02/25 00:00:19;;;;;;;;;;;3.80;84.80;;;;;;5041926;28;19944;-61
2024/02/25 00:02:52;;;;;;;;;;;3.70;85.00;;;;;;5038260;28;19928;-62
2024/02/25 00:05:25;;;;;;;;;;;3.70;85.10;;;;;;5041714;28;19932;-61
2024/02/25 00:07:59;;;;;;;;;;;3.70;85.00;;;;;;5040554;28;19929;-61
2024/02/25 00:10:32;;;;;;;;;;;3.70;85.10;;;;;;5034106;28;19933;-61
2024/02/25 00:13:05;;;;;;;;;;;3.70;85.00;;;;;;5035258;28;19981;-61
2024/02/25 00:15:40;;;;;;;;;;;3.70;85.00;;;;;;5038759;28;20776;-62
2024/02/25 00:18:13;;;;;;;;;;;3.70;85.30;;;;;;5036339;28;19929;-62
2024/02/25 00:20:46;;;;;;;;;;;3.70;85.30;;;;;;5041724;28;19932;-62
2024/02/25 00:23:19;;;;;;;;;;;3.70;85.30;;;;;;5041221;28;19929;-61
2024/02/25 00:25:52;;;;;;;;;;;3.60;85.40;;;;;;5039719;28;19932;-59
2024/02/25 00:28:25;;;;;;;;;;;3.60;85.50;;;;;;5038068;28;20395;-60
2024/02/25 00:31:00;;;;;;;;;;;3.60;85.40;;;;;;5041537;28;19935;-60
2024/02/25 00:33:33;;;;;;;;;;;3.70;85.40;;;;;;5048035;28;19929;-60
2024/02/25 00:36:07;;;;;;;;;;;3.60;85.30;;;;;;5042259;28;20038;-59
2024/02/25 00:38:40;;;;;;;;;;;3.50;85.30;;;;;;5056518;28;19970;-60
2024/02/25 00:41:13;;;;;;;;;;;3.50;85.50;;;;;;5049121;28;19932;-60
2024/02/25 00:43:46;;;;;;;;;;;3.50;85.50;;;;;;5050490;28;20564;-60
2024/02/25 00:46:20;;;;;;;;;;;3.50;85.70;;;;;;5054032;28;20005;-60
2024/02/25 00:48:53;;;;;;;;;;;3.40;86.00;;;;;;5055757;28;19947;-59
2024/02/25 00:51:26;;;;;;;;;;;3.50;86.30;;;;;;5044212;28;20020;-60
2024/02/25 00:54:00;;;;;;;;;;;3.50;86.60;;;;;;5050439;28;19928;-59
2024/02/25 00:56:33;;;;;;;;;;;3.40;86.80;;;;;;5061501;28;19928;-60
2024/02/25 00:59:06;;;;;;;;;;;3.40;86.90;;;;;;5063189;28;19936;-58
2024/02/25 01:01:41;;;;;;;;;;;3.40;86.80;;;;;;5054969;28;19933;-60
2024/02/25 01:04:14;;;;;;;;;;;3.30;86.90;;;;;;5054119;28;19933;-60
2024/02/25 01:06:48;;;;;;;;;;;3.40;86.80;;;;;;5053877;28;19935;-60
2024/02/25 01:09:22;;;;;;;;;;;3.40;86.70;;;;;;5038166;28;19941;-60
2024/02/25 01:11:55;;;;;;;;;;;3.30;86.60;;;;;;5039247;28;19939;-60
2024/02/25 01:14:28;;;;;;;;;;;3.30;86.40;;;;;;5044094;28;20380;-60
2024/02/25 01:17:03;;;;;;;;;;;3.20;86.40;;;;;;5042426;28;19929;-59
2024/02/25 01:19:36;;;;;;;;;;;3.20;86.30;;;;;;5043243;28;19933;-60
2024/02/25 01:22:10;;;;;;;;;;;3.10;86.40;;;;;;5040129;28;19932;-60
2024/02/25 01:24:43;;;;;;;;;;;3.10;86.10;;;;;;5042094;28;20009;-60
2024/02/25 01:27:16;;;;;;;;;;;3.10;86.00;;;;;;5044505;28;20014;-60
2024/02/25 01:29:50;;;;;;;;;;;3.10;85.90;;;;;;5042955;28;19924;-58
2024/02/25 01:32:25;;;;;;;;;;;3.10;85.60;;;;;;5042765;28;19933;-60
2024/02/25 01:34:58;;;;;;;;;;;3.20;85.40;;;;;;5036721;28;20019;-58
2024/02/25 01:37:31;;;;;;;;;;;3.10;85.40;;;;;;5047947;28;19936;-59
2024/02/25 01:40:05;;;;;;;;;;;3.00;85.30;;;;;;5046792;28;19929;-58
2024/02/25 01:42:38;;;;;;;;;;;3.00;85.40;;;;;;5065666;28;19924;-57
2024/02/25 01:45:11;;;;;;;;;;;3.00;85.30;;;;;;5063267;28;19929;-58
2024/02/25 01:47:46;;;;;;;;;;;3.00;85.30;;;;;;5056303;28;19933;-57
2024/02/25 01:50:20;;;;;;;;;;;2.90;85.50;;;;;;5061061;28;19932;-58
2024/02/25 01:52:54;;;;;;;;;;;3.00;85.40;;;;;;5058131;28;19980;-58
2024/02/25 01:55:31;;;;;;;;;;;3.00;85.20;;;;;;5041516;28;20546;-59
2024/02/25 01:58:06;;;;;;;;;;;2.90;85.50;;;;;;5043361;28;20027;-58
2024/02/25 02:00:40;;;;;;;;;;;2.90;85.40;;;;;;5034911;28;20383;-59
2024/02/25 02:03:15;;;;;;;;;;;3.00;85.40;;;;;;5031872;28;20443;-59
2024/02/25 02:05:48;;;;;;;;;;;3.00;85.40;;;;;;5045408;28;19932;-59
2024/02/25 02:08:21;;;;;;;;;;;3.00;85.40;;;;;;5036315;28;19978;-59
2024/02/25 02:10:54;;;;;;;;;;;2.90;85.70;;;;;;5036983;28;19933;-58
2024/02/25 02:13:27;;;;;;;;;;;2.90;85.70;;;;;;5041120;28;19929;-59
2024/02/25 02:16:00;;;;;;;;;;;2.90;85.70;;;;;;5041571;28;19928;-58
2024/02/25 02:18:35;;;;;;;;;;;2.90;85.60;;;;;;5041425;28;19933;-58
2024/02/25 02:21:10;;;;;;;;;;;2.80;85.90;;;;;;5042552;28;20007;-58
2024/02/25 02:23:44;;;;;;;;;;;2.90;85.80;;;;;;5038434;28;19929;-58
2024/02/25 02:26:17;;;;;;;;;;;2.90;86.00;;;;;;5039758;28;19924;-59
2024/02/25 02:28:50;;;;;;;;;;;2.90;86.20;;;;;;5040383;28;19956;-58
2024/02/25 02:31:30;;;;;;;;;;;2.90;86.20;;;;;;5035787;28;20004;-58
2024/02/25 02:34:03;;;;;;;;;;;2.90;86.10;;;;;;5044265;28;19978;-59
2024/02/25 02:36:38;;;;;;;;;;;3.00;86.00;;;;;;5037026;28;19925;-59
2024/02/25 02:39:11;;;;;;;;;;;3.00;86.10;;;;;;5042984;28;19928;-59
2024/02/25 02:41:44;;;;;;;;;;;2.90;85.90;;;;;;5036171;28;19947;-58
2024/02/25 02:44:17;;;;;;;;;;;2.90;86.00;;;;;;5033312;28;19955;-58
2024/02/25 02:46:50;;;;;;;;;;;2.90;86.10;;;;;;5042983;28;19924;-63
2024/02/25 02:49:23;;;;;;;;;;;3.00;86.00;;;;;;5035943;28;20024;-63
2024/02/25 02:51:53;;;;;;;;;;;3.00;86.00;;;;;;5040811;28;19932;-63
2024/02/25 02:54:26;;;;;;;;;;;3.00;86.10;;;;;;5042155;28;20002;-63
2024/02/25 02:56:59;;;;;;;;;;;3.00;86.20;;;;;;5041554;28;20410;-63
2024/02/25 02:59:33;;;;;;;;;;;3.00;85.80;;;;;;5040083;28;19929;-63
2024/02/25 03:02:06;;;;;;;;;;;3.00;85.90;;;;;;5040323;28;19952;-64
2024/02/25 03:04:39;;;;;;;;;;;3.00;86.00;;;;;;5044381;28;19952;-64
2024/02/25 03:07:14;;;;;;;;;;;3.00;85.90;;;;;;5057386;28;19929;-65
2024/02/25 03:09:47;;;;;;;;;;;2.90;86.00;;;;;;5057672;28;19925;-62
2024/02/25 03:12:14;;;;;;;;;;;2.90;85.90;;;;;;5062115;28;20580;-63
2024/02/25 03:14:47;;;;;;;;;;;3.00;86.00;;;;;;5056512;28;19938;-64
2024/02/25 03:17:21;;;;;;;;;;;3.00;85.90;;;;;;5051205;28;19928;-64
2024/02/25 03:19:54;;;;;;;;;;;3.00;86.10;;;;;;5051955;28;20269;-64
2024/02/25 03:22:29;;;;;;;;;;;3.00;86.20;;;;;;5052130;28;19924;-63
2024/02/25 03:25:03;;;;;;;;;;;3.00;86.10;;;;;;5062101;28;20287;-63
2024/02/25 03:27:37;;;;;;;;;;;3.00;86.10;;;;;;5063148;28;20385;-64
2024/02/25 03:30:05;;;;;;;;;;;3.00;86.40;;;;;;5056464;28;19979;-65
2024/02/25 03:32:39;;;;;;;;;;;3.00;86.50;;;;;;5054794;28;20579;-65
2024/02/25 03:35:06;;;;;;;;;;;3.10;86.50;;;;;;5056832;28;19933;-64
2024/02/25 03:37:44;;;;;;;;;;;3.00;86.70;;;;;;5063676;28;19934;-64
2024/02/25 03:40:17;;;;;;;;;;;3.00;86.70;;;;;;5045596;28;19925;-65
2024/02/25 03:42:50;;;;;;;;;;;3.00;86.80;;;;;;5057194;28;19935;-63
2024/02/25 03:45:23;;;;;;;;;;;2.90;86.90;;;;;;5057841;28;19933;-63
2024/02/25 03:47:50;;;;;;;;;;;2.90;87.00;;;;;;5056540;28;19940;-62
2024/02/25 03:50:23;;;;;;;;;;;2.90;87.00;;;;;;5050348;28;19960;-64
2024/02/25 03:52:58;;;;;;;;;;;3.00;86.90;;;;;;5059148;28;19928;-63
2024/02/25 03:55:32;;;;;;;;;;;2.90;87.00;;;;;;5060595;28;19933;-58
2024/02/25 03:58:04;;;;;;;;;;;3.00;86.90;;;;;;5058004;28;19928;-56
2024/02/25 04:00:37;;;;;;;;;;;3.00;87.10;;;;;;5040057;28;19929;-57
2024/02/25 04:03:10;;;;;;;;;;;3.00;87.10;;;;;;5037610;28;20587;-58
2024/02/25 04:05:43;;;;;;;;;;;3.10;87.00;;;;;;5042887;28;19929;-58
2024/02/25 04:08:18;;;;;;;;;;;3.10;87.00;;;;;;5047036;28;20378;-58
2024/02/25 04:10:51;;;;;;;;;;;3.10;87.00;;;;;;5068810;28;19925;-57
2024/02/25 04:13:24;;;;;;;;;;;3.10;87.10;;;;;;5050671;28;19925;-58
2024/02/25 04:15:57;;;;;;;;;;;3.00;87.20;;;;;;5054257;28;19929;-57
2024/02/25 04:18:30;;;;;;;;;;;3.10;87.30;;;;;;5046281;28;24715;-58
2024/02/25 04:21:04;;;;;;;;;;;3.10;87.40;;;;;;5061324;28;20034;-58
2024/02/25 04:23:38;;;;;;;;;;;3.10;87.30;;;;;;5045094;28;19928;-58
2024/02/25 04:26:11;;;;;;;;;;;3.20;87.50;;;;;;5047372;28;20123;-59
2024/02/25 04:28:44;;;;;;;;;;;3.10;87.40;;;;;;5041489;28;19932;-55
2024/02/25 04:31:17;;;;;;;;;;;3.20;87.40;;;;;;5045289;28;20020;-57
2024/02/25 04:33:50;;;;;;;;;;;3.20;87.60;;;;;;5048910;28;19939;-58
2024/02/25 04:36:18;;;;;;;;;;;3.20;87.80;;;;;;5043340;28;19936;-56
2024/02/25 04:38:53;;;;;;;;;;;3.20;87.60;;;;;;5041807;28;20567;-57
2024/02/25 04:41:26;;;;;;;;;;;3.20;87.60;;;;;;5045986;28;19936;-57
2024/02/25 04:43:59;;;;;;;;;;;3.20;87.60;;;;;;5042224;28;19936;-56
2024/02/25 04:46:33;;;;;;;;;;;3.20;87.60;;;;;;5041317;28;19936;-58
2024/02/25 04:49:08;;;;;;;;;;;3.30;87.70;;;;;;5046010;28;19928;-57
2024/02/25 04:51:40;;;;;;;;;;;3.30;87.70;;;;;;5058962;28;19931;-58
2024/02/25 04:54:15;;;;;;;;;;;3.30;87.90;;;;;;5066857;28;20012;-62
2024/02/25 04:56:49;;;;;;;;;;;3.30;87.90;;;;;;5064876;28;20009;-58
2024/02/25 04:59:22;;;;;;;;;;;3.30;88.00;;;;;;5063603;28;19964;-57
2024/02/25 05:01:56;;;;;;;;;;;3.40;87.90;;;;;;5058034;28;19924;-58
2024/02/25 05:04:28;;;;;;;;;;;3.40;88.10;;;;;;5067097;28;19924;-57
2024/02/25 05:07:01;;;;;;;;;;;3.40;88.20;;;;;;5065266;28;20425;-58
2024/02/25 05:09:36;;;;;;;;;;;3.40;88.00;;;;;;5065051;28;19924;-57
2024/02/25 05:12:11;;;;;;;;;;;3.40;88.10;;;;;;5041918;28;19928;-57
2024/02/25 05:14:51;;;;;;;;;;;3.40;88.10;;;;;;5061903;28;19928;-58
2024/02/25 05:17:24;;;;;;;;;;;3.40;87.80;;;;;;5062153;28;19928;-59
2024/02/25 05:19:57;;;;;;;;;;;3.40;88.20;;;;;;5064407;28;19924;-58
2024/02/25 05:22:30;;;;;;;;;;;3.40;88.10;;;;;;5055165;28;20916;-57
2024/02/25 05:25:05;;;;;;;;;;;3.40;88.40;;;;;;5056680;28;19925;-57
2024/02/25 05:27:39;;;;;;;;;;;3.40;88.30;;;;;;5040362;28;20395;-58
2024/02/25 05:30:13;;;;;;;;;;;3.50;88.40;;;;;;5039169;28;19925;-58
2024/02/25 05:32:46;;;;;;;;;;;3.50;88.10;;;;;;5044316;28;19935;-58
2024/02/25 05:35:13;;;;;;;;;;;3.50;88.30;;;;;;5045850;28;20388;-58
2024/02/25 05:37:46;;;;;;;;;;;3.40;88.20;;;;;;5029638;28;20023;-57
2024/02/25 05:40:21;;;;;;;;;;;3.40;88.10;;;;;;5029033;28;19952;-58
2024/02/25 05:42:54;;;;;;;;;;;3.50;88.40;;;;;;5027179;28;20301;-57
2024/02/25 05:45:27;;;;;;;;;;;3.40;88.70;;;;;;5032023;28;19952;-58
2024/02/25 05:48:00;;;;;;;;;;;3.50;88.60;;;;;;5025489;28;19936;-59
2024/02/25 05:50:33;;;;;;;;;;;3.40;88.60;;;;;;5044806;28;19982;-58
2024/02/25 05:53:06;;;;;;;;;;;3.50;88.40;;;;;;5044354;28;19936;-57
2024/02/25 05:55:34;;;;;;;;;;;3.50;88.60;;;;;;5042764;28;19924;-58
2024/02/25 05:58:16;;;;;;;;;;;3.50;88.50;;;;;;5044965;28;19925;-58
2024/02/25 06:00:49;;;;;;;;;;;3.40;88.60;;;;;;5038205;28;20441;-57
2024/02/25 06:03:16;;;;;;;;;;;3.40;88.70;;;;;;5048950;28;19975;-58
2024/02/25 06:05:49;;;;;;;;;;;3.50;88.70;;;;;;5055503;28;20016;-58
2024/02/25 06:08:22;;;;;;;;;;;3.60;88.80;;;;;;5051265;28;19970;-58
2024/02/25 15:07:56;;;;;;;;;;;9.70;68.90;;;;;;5014767;28;19935;-58
2024/02/25 15:10:29;;;;;;;;;;;9.70;67.30;;;;;;5024626;28;19925;-57
2024/02/25 15:13:04;;;;;;;;;;;9.70;66.90;;;;;;5025036;28;19925;-57
2024/02/25 15:15:38;;;;;;;;;;;9.70;66.70;;;;;;5021668;28;19933;-57
2024/02/25 15:18:11;;;;;;;;;;;9.70;67.00;;;;;;5022151;28;20024;-61
2024/02/25 15:20:44;;;;;;;;;;;9.70;68.10;;;;;;5025779;28;19925;-57
2024/02/25 15:23:18;;;;;;;;;;;9.60;68.10;;;;;;5021102;28;19925;-58
2024/02/25 15:25:52;;;;;;;;;;;9.60;67.40;;;;;;5024346;28;19972;-57
2024/02/25 15:28:25;;;;;;;;;;;9.60;67.60;;;;;;5024637;28;20032;-57
2024/02/25 15:30:58;;;;;;;;;;;9.60;67.70;;;;;;5025028;28;19929;-57
2024/02/25 15:33:31;;;;;;;;;;;9.60;68.30;;;;;;5024274;28;19940;-58
2024/02/25 15:36:04;;;;;;;;;;;9.50;68.50;;;;;;5023014;28;19937;-57
2024/02/25 15:38:39;;;;;;;;;;;9.50;68.70;;;;;;5022586;28;20411;-58
2024/02/25 15:41:14;;;;;;;;;;;9.40;69.30;;;;;;5022900;28;19929;-58
2024/02/25 15:43:47;;;;;;;;;;;9.40;69.70;;;;;;5020786;28;19936;-57
2024/02/25 15:46:21;;;;;;;;;;;9.40;70.00;;;;;;5023274;28;19925;-57
2024/02/25 15:48:55;;;;;;;;;;;9.30;70.00;;;;;;5029005;28;19933;-59
2024/02/25 15:51:28;;;;;;;;;;;9.20;70.20;;;;;;5026416;28;19929;-59
2024/02/25 15:54:02;;;;;;;;;;;9.20;70.50;;;;;;5035350;28;19937;-58
2024/02/25 15:56:36;;;;;;;;;;;9.20;70.90;;;;;;5023359;28;19948;-56
2024/02/25 15:59:10;;;;;;;;;;;9.10;71.30;;;;;;5021400;28;20335;-57
2024/02/25 16:01:43;;;;;;;;;;;9.10;71.10;;;;;;5022810;28;19951;-57
2024/02/25 16:04:16;;;;;;;;;;;9.00;71.10;;;;;;5025812;28;19936;-56
2024/02/25 16:06:49;;;;;;;;;;;9.00;71.80;;;;;;5026910;28;19929;-59
2024/02/25 16:09:23;;;;;;;;;;;8.90;71.80;;;;;;5027720;28;19936;-57
2024/02/25 16:11:57;;;;;;;;;;;8.90;72.20;;;;;;5026569;28;19948;-58
2024/02/25 16:14:32;;;;;;;;;;;8.90;72.30;;;;;;5025540;28;19925;-57
2024/02/25 16:17:06;;;;;;;;;;;8.80;72.70;;;;;;5026772;28;20405;-57
2024/02/25 16:19:41;;;;;;;;;;;8.80;73.00;;;;;;5036127;28;19937;-57
2024/02/25 16:22:15;;;;;;;;;;;8.80;73.30;;;;;;5036494;28;19932;-59
2024/02/25 16:24:43;;;;;;;;;;;8.70;73.30;;;;;;5047296;28;19936;-57
2024/02/25 16:27:16;;;;;;;;;;;8.70;73.50;;;;;;5035954;28;19929;-57
2024/02/25 16:29:49;;;;;;;;;;;8.60;73.90;;;;;;5028886;28;19982;-57
2024/02/25 16:32:22;;;;;;;;;;;8.60;74.20;;;;;;5048015;28;19988;-58
2024/02/25 16:34:49;;;;;;;;;;;8.60;74.20;;;;;;5034109;28;20916;-58
2024/02/25 16:37:22;;;;;;;;;;;8.50;74.40;;;;;;5034549;28;20291;-59
2024/02/25 16:39:56;;;;;;;;;;;8.40;74.70;;;;;;5041358;28;20437;-59
2024/02/25 16:42:30;;;;;;;;;;;8.40;74.90;;;;;;5044131;28;19970;-58
2024/02/25 16:45:04;;;;;;;;;;;8.30;75.00;;;;;;5040316;28;19936;-65
2024/02/25 16:47:38;;;;;;;;;;;8.20;75.50;;;;;;5040725;28;19925;-65
2024/02/25 16:50:11;;;;;;;;;;;8.20;75.60;;;;;;5017545;28;19925;-65
2024/02/25 16:52:44;;;;;;;;;;;8.10;75.90;;;;;;5037159;28;19925;-65
2024/02/25 16:55:18;;;;;;;;;;;8.00;76.20;;;;;;5040900;28;20384;-64
2024/02/25 16:57:54;;;;;;;;;;;8.00;76.30;;;;;;5037649;28;19933;-64
2024/02/25 17:00:28;;;;;;;;;;;7.90;76.30;;;;;;5017157;28;19937;-63
2024/02/25 17:03:01;;;;;;;;;;;7.90;76.40;;;;;;5021198;28;19930;-63
2024/02/25 17:05:34;;;;;;;;;;;7.90;76.80;;;;;;5022954;28;19930;-64
2024/02/25 17:08:07;;;;;;;;;;;7.70;76.90;;;;;;5025290;28;19933;-65
2024/02/25 17:10:41;;;;;;;;;;;7.70;77.00;;;;;;5023731;28;19929;-64
2024/02/25 17:13:15;;;;;;;;;;;7.70;77.30;;;;;;5026423;28;19948;-63
2024/02/25 17:15:48;;;;;;;;;;;7.60;77.40;;;;;;5019960;28;20400;-64
2024/02/25 17:18:16;;;;;;;;;;;7.50;77.70;;;;;;5014811;28;20312;-65
2024/02/25 17:20:49;;;;;;;;;;;7.40;77.90;;;;;;5023135;28;20435;-63
2024/02/25 17:23:22;;;;;;;;;;;7.40;78.00;;;;;;5017558;28;19929;-65
2024/02/25 17:25:56;;;;;;;;;;;7.30;78.20;;;;;;5023256;28;19926;-64
2024/02/25 17:28:30;;;;;;;;;;;7.20;78.50;;;;;;5037616;28;19957;-64
2024/02/25 17:31:03;;;;;;;;;;;7.10;78.70;;;;;;5042090;28;20000;-63
2024/02/25 17:33:38;;;;;;;;;;;7.10;78.80;;;;;;5044030;28;19931;-64
2024/02/25 17:36:12;;;;;;;;;;;7.00;78.90;;;;;;5046693;28;19940;-64
2024/02/25 17:38:46;;;;;;;;;;;7.00;78.90;;;;;;5041379;28;19924;-63
2024/02/25 17:41:20;;;;;;;;;;;6.90;79.10;;;;;;5041389;28;19931;-65
2024/02/25 17:43:54;;;;;;;;;;;6.80;79.20;;;;;;5039199;28;19972;-64
2024/02/25 17:46:27;;;;;;;;;;;6.80;79.40;;;;;;5044407;28;19925;-64
2024/02/25 17:48:54;;;;;;;;;;;6.80;79.50;;;;;;5034814;28;19925;-63
2024/02/25 17:51:27;;;;;;;;;;;6.70;79.40;;;;;;5042480;28;20006;-63
2024/02/25 17:54:00;;;;;;;;;;;6.70;79.40;;;;;;5044247;28;19925;-63
2024/02/25 17:56:34;;;;;;;;;;;6.60;79.60;;;;;;5033504;28;20047;-73
2024/02/25 17:59:09;;;;;;;;;;;6.60;79.70;;;;;;5031841;28;19933;-75
2024/02/25 18:01:44;;;;;;;;;;;6.60;79.70;;;;;;5027364;28;19960;-75
2024/02/25 18:04:17;;;;;;;;;;;6.50;79.70;;;;;;5023834;28;19929;-73
2024/02/25 18:06:52;;;;;;;;;;;6.40;80.00;;;;;;5021935;28;19931;-76
2024/02/25 18:09:18;;;;;;;;;;;6.30;80.00;;;;;;5023822;28;19940;-71
2024/02/25 18:11:53;;;;;;;;;;;6.30;80.10;;;;;;5020304;28;19933;-73
2024/02/25 18:14:27;;;;;;;;;;;6.20;80.10;;;;;;5025337;28;19979;-75
2024/02/25 18:17:01;;;;;;;;;;;6.20;80.10;;;;;;5026058;28;19925;-72
2024/02/25 18:19:34;;;;;;;;;;;6.20;80.00;;;;;;5024614;28;19930;-74
2024/02/25 18:22:12;;;;;;;;;;;6.10;80.10;;;;;;5025126;28;19933;-73
2024/02/25 18:24:46;;;;;;;;;;;6.10;80.10;;;;;;5025177;28;19965;-73
2024/02/25 18:27:14;;;;;;;;;;;6.10;80.10;;;;;;5024003;28;20003;-74
2024/02/25 18:29:47;;;;;;;;;;;6.00;80.30;;;;;;5023737;28;19956;-76
2024/02/25 18:32:22;;;;;;;;;;;6.00;80.30;;;;;;5021056;28;19925;-73
2024/02/25 18:34:56;;;;;;;;;;;6.00;80.50;;;;;;5025398;28;20008;-73
2024/02/25 18:37:29;;;;;;;;;;;6.00;80.30;;;;;;5024505;28;19929;-73
2024/02/25 18:40:02;;;;;;;;;;;6.00;80.50;;;;;;5021196;28;19929;-72
2024/02/25 18:42:36;;;;;;;;;;;5.90;80.50;;;;;;5024525;28;19960;-73
2024/02/25 18:45:10;;;;;;;;;;;5.90;80.50;;;;;;5024405;28;19983;-71
2024/02/25 18:47:43;;;;;;;;;;;5.80;80.60;;;;;;5025139;28;19925;-74
2024/02/25 18:50:16;;;;;;;;;;;5.80;80.70;;;;;;5020915;28;19929;-73
2024/02/25 18:52:49;;;;;;;;;;;5.70;80.80;;;;;;5024615;28;19968;-73
2024/02/25 18:55:23;;;;;;;;;;;5.70;80.60;;;;;;5024049;28;19940;-73
2024/02/25 18:57:58;;;;;;;;;;;5.70;80.70;;;;;;5027194;28;19932;-72
2024/02/25 19:00:32;;;;;;;;;;;5.70;80.80;;;;;;5015888;28;19980;-72
2024/02/25 19:03:05;;;;;;;;;;;5.70;80.70;;;;;;5010261;28;19968;-74
2024/02/25 19:05:39;;;;;;;;;;;5.70;80.40;;;;;;5021955;28;19930;-63
2024/02/25 19:08:12;;;;;;;;;;;5.70;80.60;;;;;;5026088;28;19961;-62
2024/02/25 19:10:46;;;;;;;;;;;5.70;80.90;;;;;;5026567;28;19925;-64
2024/02/25 19:13:22;;;;;;;;;;;5.70;80.70;;;;;;5026289;28;19925;-63
2024/02/25 19:15:55;;;;;;;;;;;5.70;80.60;;;;;;5026088;28;19956;-65
2024/02/25 19:18:34;;;;;;;;;;;5.60;80.80;;;;;;5022560;28;19925;-64
2024/02/25 19:21:08;;;;;;;;;;;5.60;80.90;;;;;;5021335;28;19931;-63
2024/02/25 19:23:41;;;;;;;;;;;5.50;80.80;;;;;;5024216;28;20016;-64
2024/02/25 19:26:15;;;;;;;;;;;5.40;81.00;;;;;;5026012;28;19929;-65
2024/02/25 19:28:49;;;;;;;;;;;5.40;81.00;;;;;;5021621;28;19965;-63
2024/02/25 19:31:23;;;;;;;;;;;5.40;81.20;;;;;;5024765;28;19925;-64
2024/02/25 19:33:56;;;;;;;;;;;5.30;81.20;;;;;;5025043;28;19925;-63
2024/02/25 19:36:29;;;;;;;;;;;5.30;81.40;;;;;;5025114;28;19932;-62
2024/02/25 19:39:02;;;;;;;;;;;5.20;81.30;;;;;;5027070;28;20422;-63
2024/02/25 19:41:36;;;;;;;;;;;5.40;81.30;;;;;;5026852;28;20395;-62
2024/02/25 19:44:11;;;;;;;;;;;5.30;81.30;;;;;;5037970;28;20376;-63
2024/02/25 19:46:45;;;;;;;;;;;5.30;81.30;;;;;;5046827;28;19929;-62
2024/02/25 19:49:18;;;;;;;;;;;5.30;81.20;;;;;;5043745;28;19932;-62
2024/02/25 19:51:51;;;;;;;;;;;5.40;81.20;;;;;;5025232;28;20008;-63
2024/02/25 19:54:30;;;;;;;;;;;5.40;81.10;;;;;;5024193;28;20003;-63
2024/02/25 19:57:04;;;;;;;;;;;5.40;81.10;;;;;;5026511;28;20070;-64
2024/02/25 19:59:40;;;;;;;;;;;5.40;81.20;;;;;;5028365;28;19925;-64
2024/02/25 20:02:15;;;;;;;;;;;5.40;81.10;;;;;;5019760;28;19933;-64
2024/02/25 20:04:48;;;;;;;;;;;5.40;81.20;;;;;;5013060;28;19935;-64
2024/02/25 20:07:21;;;;;;;;;;;5.40;81.20;;;;;;5022470;28;19935;-64
2024/02/25 20:09:55;;;;;;;;;;;5.40;81.10;;;;;;5024620;28;19975;-64
2024/02/25 20:12:28;;;;;;;;;;;5.40;81.10;;;;;;5026115;28;19931;-64
2024/02/25 20:15:03;;;;;;;;;;;5.40;80.90;;;;;;5025765;28;20012;-62
2024/02/25 20:17:37;;;;;;;;;;;5.30;81.00;;;;;;5022541;28;19940;-62
2024/02/25 20:20:12;;;;;;;;;;;5.10;81.20;;;;;;5025048;28;19948;-61
2024/02/25 20:22:46;;;;;;;;;;;5.10;81.60;;;;;;5026624;28;20304;-62
2024/02/25 20:25:19;;;;;;;;;;;5.10;81.40;;;;;;5024922;28;19933;-62
2024/02/25 20:27:53;;;;;;;;;;;5.10;81.60;;;;;;5028304;28;19979;-62
2024/02/25 20:30:27;;;;;;;;;;;5.20;81.40;;;;;;5027567;28;20110;-61
2024/02/25 20:33:01;;;;;;;;;;;5.20;81.20;;;;;;5026608;28;19964;-60
2024/02/25 20:35:35;;;;;;;;;;;5.20;81.10;;;;;;5026953;28;20010;-61
2024/02/25 20:38:08;;;;;;;;;;;5.20;81.10;;;;;;5025883;28;19929;-63
2024/02/25 20:40:41;;;;;;;;;;;5.20;81.10;;;;;;5025173;28;19960;-63
2024/02/25 20:43:14;;;;;;;;;;;5.20;81.30;;;;;;5028788;28;20376;-62
2024/02/25 20:45:48;;;;;;;;;;;5.20;81.20;;;;;;5026844;28;20356;-63
2024/02/25 20:48:22;;;;;;;;;;;5.20;81.20;;;;;;5026595;28;19933;-60
2024/02/25 20:50:56;;;;;;;;;;;5.20;81.20;;;;;;5029005;28;19925;-62
2024/02/25 20:53:29;;;;;;;;;;;5.20;81.30;;;;;;5027035;28;19979;-62
2024/02/25 20:56:02;;;;;;;;;;;5.30;81.20;;;;;;5028540;28;19925;-62
2024/02/25 20:58:29;;;;;;;;;;;5.20;81.20;;;;;;5025460;28;20391;-61
2024/02/25 21:01:06;;;;;;;;;;;5.20;81.50;;;;;;5025452;28;19925;-62
2024/02/25 21:03:40;;;;;;;;;;;5.30;81.40;;;;;;5024731;28;19929;-62
2024/02/25 21:06:07;;;;;;;;;;;5.30;81.20;;;;;;5027382;28;19948;-62
2024/02/25 21:08:40;;;;;;;;;;;5.20;81.20;;;;;;5028365;28;20010;-60
2024/02/25 21:11:16;;;;;;;;;;;5.20;81.20;;;;;;5024437;28;19929;-61
2024/02/25 21:13:50;;;;;;;;;;;5.30;81.30;;;;;;5026152;28;19925;-62
2024/02/25 21:16:24;;;;;;;;;;;5.30;81.40;;;;;;5018173;28;20420;-62
2024/02/25 21:18:58;;;;;;;;;;;5.30;81.30;;;;;;5031208;28;19929;-62
2024/02/25 21:21:31;;;;;;;;;;;5.20;81.50;;;;;;5027108;28;19933;-62
2024/02/25 21:24:05;;;;;;;;;;;5.20;81.50;;;;;;5038083;28;19925;-61
2024/02/25 21:26:39;;;;;;;;;;;5.20;81.70;;;;;;5032098;28;19929;-61
2024/02/25 21:29:12;;;;;;;;;;;5.20;81.50;;;;;;5024515;28;19933;-62
2024/02/25 21:31:46;;;;;;;;;;;5.20;81.50;;;;;;5030285;28;19933;-62
2024/02/25 21:34:20;;;;;;;;;;;5.20;81.70;;;;;;5027284;28;20407;-62
2024/02/25 21:36:53;;;;;;;;;;;5.20;81.50;;;;;;5038922;28;19937;-64
2024/02/25 21:39:20;;;;;;;;;;;5.30;81.30;;;;;;5043834;28;19925;-62
2024/02/25 21:41:53;;;;;;;;;;;5.30;81.30;;;;;;5037603;28;20372;-63
2024/02/25 21:44:26;;;;;;;;;;;5.30;81.20;;;;;;5041269;28;20021;-63
2024/02/25 21:54:43;;;;;;;;;;;5.30;81.40;;;;;;5012478;28;19975;-61
2024/02/25 21:57:18;;;;;;;;;;;5.30;81.20;;;;;;5017569;28;19929;-62
2024/02/25 21:59:52;;;;;;;;;;;5.30;81.30;;;;;;5025663;28;19935;-63
2024/02/25 22:02:26;;;;;;;;;;;5.30;81.30;;;;;;5018977;28;19933;-63
2024/02/25 22:04:59;;;;;;;;;;;5.30;81.40;;;;;;5024539;28;20394;-63
2024/02/25 22:07:32;;;;;;;;;;;5.30;81.60;;;;;;5023921;28;20010;-63
2024/02/25 22:10:06;;;;;;;;;;;5.20;81.90;;;;;;5026290;28;19943;-62
2024/02/25 22:12:40;;;;;;;;;;;5.20;82.00;;;;;;5032387;28;20007;-62
2024/02/25 22:15:14;;;;;;;;;;;5.20;82.20;;;;;;5031138;28;20344;-62
2024/02/25 22:17:47;;;;;;;;;;;5.30;82.30;;;;;;5043173;28;20307;-62
2024/02/25 22:20:20;;;;;;;;;;;5.30;82.30;;;;;;5025015;28;19948;-62
2024/02/25 22:22:53;;;;;;;;;;;5.30;82.30;;;;;;5031096;28;19932;-63
2024/02/25 22:25:26;;;;;;;;;;;5.30;82.10;;;;;;5022000;28;20019;-62
2024/02/25 22:28:01;;;;;;;;;;;5.40;82.00;;;;;;5026273;28;20017;-61
2024/02/25 22:30:34;;;;;;;;;;;5.30;81.90;;;;;;5021184;28;19965;-63
2024/02/25 22:33:01;;;;;;;;;;;5.40;82.00;;;;;;5024470;28;19929;-63
2024/02/25 22:35:34;;;;;;;;;;;5.40;82.10;;;;;;5024587;28;19929;-64
2024/02/25 22:38:07;;;;;;;;;;;5.30;82.20;;;;;;5024506;28;20638;-64
2024/02/25 22:40:40;;;;;;;;;;;5.40;82.30;;;;;;5024498;28;19973;-64
2024/02/25 22:43:15;;;;;;;;;;;5.40;82.30;;;;;;5025220;28;20014;-64
2024/02/25 22:45:49;;;;;;;;;;;5.40;82.40;;;;;;5025194;28;20024;-64
2024/02/25 22:48:22;;;;;;;;;;;5.40;82.50;;;;;;5018329;28;19940;-64
2024/02/25 22:50:55;;;;;;;;;;;5.40;82.40;;;;;;5024406;28;19936;-65
2024/02/25 22:53:28;;;;;;;;;;;5.40;82.00;;;;;;5023520;28;19937;-64
2024/02/25 22:56:01;;;;;;;;;;;5.40;82.00;;;;;;5026908;28;19929;-64
2024/02/25 22:58:37;;;;;;;;;;;5.50;81.90;;;;;;5023015;28;20003;-64
2024/02/25 23:01:10;;;;;;;;;;;5.50;81.80;;;;;;5025147;28;19929;-66
2024/02/25 23:03:44;;;;;;;;;;;5.50;81.80;;;;;;5024007;28;19932;-64
2024/02/25 23:06:17;;;;;;;;;;;5.60;81.60;;;;;;5037634;28;19925;-64
2024/02/25 23:08:50;;;;;;;;;;;5.50;81.60;;;;;;5025127;28;20154;-65
2024/02/25 23:11:23;;;;;;;;;;;5.60;81.50;;;;;;5024243;28;20395;-65
2024/02/25 23:13:58;;;;;;;;;;;5.50;81.40;;;;;;5031185;28;20558;-65
2024/02/25 23:16:32;;;;;;;;;;;5.60;81.40;;;;;;5025773;28;19925;-66
2024/02/25 23:19:05;;;;;;;;;;;5.60;81.60;;;;;;5023737;28;19925;-65
2024/02/25 23:21:38;;;;;;;;;;;5.50;81.60;;;;;;5023050;28;19929;-65
2024/02/25 23:24:11;;;;;;;;;;;5.50;81.60;;;;;;5023454;28;20344;-63
2024/02/25 23:26:44;;;;;;;;;;;5.40;81.90;;;;;;5026145;28;19971;-65
2024/02/25 23:29:18;;;;;;;;;;;5.40;82.10;;;;;;5023069;28;19940;-65
2024/02/25 23:31:52;;;;;;;;;;;5.40;82.10;;;;;;5026337;28;19929;-64
2024/02/25 23:34:25;;;;;;;;;;;5.40;82.10;;;;;;5024651;28;20015;-63
2024/02/25 23:36:58;;;;;;;;;;;5.40;82.30;;;;;;5025995;28;19929;-63
2024/02/25 23:39:31;;;;;;;;;;;5.40;82.50;;;;;;5025496;28;19945;-64
2024/02/25 23:42:04;;;;;;;;;;;5.30;82.60;;;;;;5022458;28;19925;-64
2024/02/25 23:44:40;;;;;;;;;;;5.40;82.60;;;;;;5023270;28;20547;-65
2024/02/25 23:47:13;;;;;;;;;;;5.30;82.70;;;;;;5024385;28;19933;-65
2024/02/25 23:49:46;;;;;;;;;;;5.30;82.80;;;;;;5024620;28;19948;-65
2024/02/25 23:52:13;;;;;;;;;;;5.30;82.80;;;;;;5023584;28;19933;-65
2024/02/25 23:54:46;;;;;;;;;;;5.40;82.60;;;;;;5025195;28;20296;-64
2024/02/25 23:57:19;;;;;;;;;;;5.40;82.80;;;;;;5024575;28;20507;-65
2024/02/25 23:59:54;;;;;;;;;;;5.40;82.90;;;;;;5024958;28;19925;-64
